Time,TemperatureF,DewpointF,PressureIn,WindDirection,WindDirectionDegrees,WindSpeedMPH,WindSpeedGustMPH,Humidity,HourlyPrecipIn,Conditions,Clouds,dailyrainin,SoftwareType,DateUTC
2013-01-19 00:01:00,48.3,27.9,29.64,SW,233,9.9,29.0,45,0.00,,OVC,0.00,VWS V14.00,2013-01-19 05:01:00,
2013-01-19 00:03:00,24.3,12.3,30.15,SSW,201,7.0,15.0,60,0.00,,SKC,0.00,VWS V14.00,2013-01-19 05:03:00,
2013-01-19 00:08:00,24.5,12.3,30.15,South,190,8.2,15.0,59,0.00,,SKC,0.00,VWS V14.00,2013-01-19 05:08:00,
2013-01-19 00:13:00,24.5,12.6,30.14,SSE,155,5.5,15.0,60,0.00,,SKC,0.00,VWS V14.00,2013-01-19 05:13:00,
2013-01-19 00:18:00,24.9,12.9,30.14,SSE,158,8.1,15.0,60,0.00,,SKC,0.00,VWS V14.00,2013-01-19 05:18:00,
2013-01-19 00:23:00,25.1,13.2,30.14,SSW,211,3.5,15.0,60,0.00,,SKC,0.00,VWS V14.00,2013-01-19 05:23:00,
2013-01-19 00:27:00,25.2,13.2,30.13,South,176,10.6,15.0,60,0.00,,SKC,0.00,VWS V14.00,2013-01-19 05:27:00,
2013-01-19 00:30:00,25.2,13.2,30.13,South,176,10.6,15.0,60,0.00,,SCT,0.00,VWS V14.00,2013-01-19 05:30:00,
2013-01-19 00:33:00,25.5,13.4,30.13,SSW,201,3.4,13.4,60,0.00,,SKC,0.00,VWS V14.00,2013-01-19 05:33:00,
2013-01-19 00:38:00,25.6,13.2,30.13,SSE,162,8.3,16.3,59,0.00,,SKC,0.00,VWS V14.00,2013-01-19 05:38:00,
2013-01-19 00:43:00,25.7,12.9,30.12,South,188,10.2,16.3,58,0.00,,SKC,0.00,VWS V14.00,2013-01-19 05:43:00,
2013-01-19 00:48:00,25.6,12.9,30.12,SE,138,10.9,16.3,58,0.00,,SKC,0.00,VWS V14.00,2013-01-19 05:48:00,
2013-01-19 00:53:00,25.7,13.2,30.12,SE,141,11.5,16.3,58,0.00,,SKC,0.00,VWS V14.00,2013-01-19 05:53:00,
2013-01-19 00:58:00,25.8,13.2,30.11,South,187,5.2,12.5,58,0.00,,SKC,0.00,VWS V14.00,2013-01-19 05:58:00,
2013-01-19 01:00:00,25.8,13.1,30.12,South,172,8.2,16.3,58,0.00,,SCT,0.00,VWS V14.00,2013-01-19 06:00:00,
2013-01-19 01:03:00,26.0,13.1,30.11,SSE,150,9.1,12.5,58,0.00,,SKC,0.00,VWS V14.00,2013-01-19 06:03:00,
2013-01-19 01:08:00,26.4,13.7,30.11,South,176,7.6,12.6,58,0.00,,SKC,0.00,VWS V14.00,2013-01-19 06:08:00,
2013-01-19 01:13:00,26.5,14.0,30.11,SSE,165,4.2,12.6,59,0.00,,SKC,0.00,VWS V14.00,2013-01-19 06:13:00,
2013-01-19 01:18:00,26.7,14.5,30.10,South,184,3.0,13.5,60,0.00,,SKC,0.00,VWS V14.00,2013-01-19 06:18:00,
2013-01-19 01:23:00,26.7,14.4,30.10,SSE,160,7.8,13.7,59,0.00,,SKC,0.00,VWS V14.00,2013-01-19 06:23:00,
2013-01-19 01:28:00,27.0,15.0,30.10,SSE,165,7.0,7.8,60,0.00,,SKC,0.00,VWS V14.00,2013-01-19 06:28:00,
2013-01-19 01:30:00,26.7,14.6,30.10,South,172,5.0,15.2,60,0.00,,SCT,0.00,VWS V14.00,2013-01-19 06:30:00,
2013-01-19 01:34:00,26.9,15.0,30.10,South,176,4.8,14.2,60,0.00,,SKC,0.00,VWS V14.00,2013-01-19 06:34:00,
2013-01-19 01:39:00,27.0,15.0,30.10,SSW,201,6.0,18.8,60,0.00,,SKC,0.00,VWS V14.00,2013-01-19 06:39:00,
2013-01-19 01:44:00,27.2,15.6,30.10,SSW,207,9.2,18.8,61,0.00,,SKC,0.00,VWS V14.00,2013-01-19 06:44:00,
2013-01-19 01:49:00,27.0,16.4,30.10,SSW,202,8.2,19.1,64,0.00,,SKC,0.00,VWS V14.00,2013-01-19 06:49:00,
2013-01-19 01:54:00,26.8,17.4,30.09,SSW,200,8.1,19.1,67,0.00,,SKC,0.00,VWS V14.00,2013-01-19 06:54:00,
2013-01-19 01:59:00,26.7,18.0,30.10,South,173,7.3,14.1,69,0.00,,SKC,0.00,VWS V14.00,2013-01-19 06:59:00,
2013-01-19 02:00:00,26.7,17.7,30.10,South,174,8.6,19.1,68,0.00,,SCT,0.00,VWS V14.00,2013-01-19 07:00:00,
2013-01-19 02:04:00,26.6,19.1,30.10,South,173,9.0,23.7,73,0.00,,SKC,0.00,VWS V14.00,2013-01-19 07:04:00,
2013-01-19 02:09:00,26.5,20.1,30.09,SW,219,6.8,23.7,76,0.00,,SKC,0.00,VWS V14.00,2013-01-19 07:09:00,
2013-01-19 02:14:00,26.4,20.8,30.09,South,176,6.2,23.7,79,0.00,,SKC,0.00,VWS V14.00,2013-01-19 07:14:00,
2013-01-19 02:19:00,26.1,21.1,30.09,South,181,6.6,23.7,81,0.00,,SKC,0.00,VWS V14.00,2013-01-19 07:19:00,
2013-01-19 02:24:00,25.8,21.6,30.09,South,176,7.4,23.7,84,0.00,,SKC,0.00,VWS V14.00,2013-01-19 07:24:00,
2013-01-19 02:29:00,25.7,22.1,30.08,South,173,14.2,14.2,86,0.00,,SKC,0.00,VWS V14.00,2013-01-19 07:29:00,
2013-01-19 02:30:00,25.7,21.9,30.09,SSE,162,10.1,23.7,85,0.00,,SCT,0.00,VWS V14.00,2013-01-19 07:30:00,
2013-01-19 02:34:00,25.4,22.1,30.09,SW,221,5.2,17.0,87,0.00,,SKC,0.00,VWS V14.00,2013-01-19 07:34:00,
2013-01-19 02:39:00,25.2,22.4,30.08,South,190,12.2,17.0,89,0.00,,SKC,0.00,VWS V14.00,2013-01-19 07:39:00,
2013-01-19 02:44:00,25.3,22.7,30.08,SSE,158,7.7,17.0,90,0.00,,SKC,0.00,VWS V14.00,2013-01-19 07:44:00,
2013-01-19 02:49:00,25.0,22.5,30.08,SSE,159,7.1,17.0,90,0.00,,SKC,0.00,VWS V14.00,2013-01-19 07:49:00,
2013-01-19 02:54:00,25.1,22.8,30.08,South,187,6.0,17.0,91,0.00,,SKC,0.00,VWS V14.00,2013-01-19 07:54:00,
2013-01-19 02:59:00,25.1,22.8,30.08,SSE,153,15.1,17.1,91,0.00,,SKC,0.00,VWS V14.00,2013-01-19 07:59:00,
2013-01-19 03:00:00,25.1,22.8,30.08,SW,229,7.6,17.0,91,0.00,,SCT,0.00,VWS V14.00,2013-01-19 08:00:00,
2013-01-19 03:04:00,25.3,22.9,30.07,SW,228,8.4,17.1,90,0.00,,SKC,0.00,VWS V14.00,2013-01-19 08:04:00,
2013-01-19 03:09:00,25.3,22.9,30.07,SSW,208,11.4,17.1,91,0.00,,SKC,0.00,VWS V14.00,2013-01-19 08:09:00,
2013-01-19 03:14:00,25.4,22.9,30.06,SE,146,10.6,17.1,90,0.00,,SKC,0.00,VWS V14.00,2013-01-19 08:14:00,
2013-01-19 03:19:00,25.7,23.0,30.06,SSW,195,8.1,17.1,89,0.00,,SKC,0.00,VWS V14.00,2013-01-19 08:19:00,
2013-01-19 03:24:00,25.9,23.0,30.05,South,183,8.0,17.4,88,0.00,,SKC,0.00,VWS V14.00,2013-01-19 08:24:00,
2013-01-19 03:29:00,25.8,22.8,30.05,SSW,208,5.8,16.0,88,0.00,,SKC,0.00,VWS V14.00,2013-01-19 08:29:00,
2013-01-19 03:30:00,25.9,23.0,30.05,South,186,4.3,17.4,88,0.00,,SCT,0.00,VWS V14.00,2013-01-19 08:30:00,
2013-01-19 03:34:00,26.0,22.8,30.05,SSE,160,7.0,16.0,87,0.00,,SKC,0.00,VWS V14.00,2013-01-19 08:34:00,
2013-01-19 03:39:00,26.2,22.6,30.05,SSW,198,5.2,16.2,86,0.00,,SKC,0.00,VWS V14.00,2013-01-19 08:39:00,
2013-01-19 03:44:00,26.5,22.6,30.04,SSE,156,7.2,16.2,85,0.00,,SKC,0.00,VWS V14.00,2013-01-19 08:44:00,
2013-01-19 03:49:00,26.9,22.1,30.04,South,181,9.2,16.5,82,0.00,,SKC,0.00,VWS V14.00,2013-01-19 08:49:00,
2013-01-19 03:54:00,27.3,21.9,30.03,South,186,2.9,16.5,80,0.00,,SKC,0.00,VWS V14.00,2013-01-19 08:54:00,
2013-01-19 03:59:00,27.4,21.7,30.03,SSE,167,10.6,14.0,79,0.00,,SKC,0.00,VWS V14.00,2013-01-19 08:59:00,
2013-01-19 04:00:00,27.3,21.6,30.03,SSE,167,9.8,16.5,79,0.00,,SCT,0.00,VWS V14.00,2013-01-19 09:00:00,
2013-01-19 04:04:00,27.8,21.3,30.03,SSE,165,7.2,14.9,76,0.00,,SKC,0.00,VWS V14.00,2013-01-19 09:04:00,
2013-01-19 04:09:00,28.1,21.0,30.02,SSE,162,7.9,16.2,74,0.00,,SKC,0.00,VWS V14.00,2013-01-19 09:09:00,
2013-01-19 04:14:00,28.6,20.4,30.02,SW,214,3.0,16.2,71,0.00,,SKC,0.00,VWS V14.00,2013-01-19 09:14:00,
2013-01-19 04:19:00,28.9,20.6,30.02,SSE,152,6.0,16.2,71,0.00,,SKC,0.00,VWS V14.00,2013-01-19 09:19:00,
2013-01-19 04:24:00,29.2,20.6,30.02,South,186,5.0,16.2,70,0.00,,SKC,0.00,VWS V14.00,2013-01-19 09:24:00,
2013-01-19 04:29:00,29.5,20.4,30.02,SSW,194,5.0,13.0,68,0.00,,SKC,0.00,VWS V14.00,2013-01-19 09:29:00,
2013-01-19 04:30:00,29.4,20.5,30.02,SSW,207,4.2,16.2,69,0.00,,SCT,0.00,VWS V14.00,2013-01-19 09:30:00,
2013-01-19 04:34:00,29.7,20.1,30.01,SSW,211,6.0,13.0,67,0.00,,SKC,0.00,VWS V14.00,2013-01-19 09:34:00,
2013-01-19 04:39:00,30.1,20.3,30.01,South,172,5.6,13.0,67,0.00,,SKC,0.00,VWS V14.00,2013-01-19 09:39:00,
2013-01-19 04:44:00,30.3,19.6,30.01,SSW,194,8.3,13.0,64,0.00,,SKC,0.00,VWS V14.00,2013-01-19 09:44:00,
2013-01-19 04:49:00,30.5,19.7,30.01,South,187,11.2,14.7,64,0.00,,SKC,0.00,VWS V14.00,2013-01-19 09:49:00,
2013-01-19 04:54:00,30.9,19.6,30.00,SSW,211,2.4,14.7,62,0.00,,SKC,0.00,VWS V14.00,2013-01-19 09:54:00,
2013-01-19 04:59:00,31.1,19.4,30.01,SSW,212,6.8,11.2,62,0.00,,SKC,0.00,VWS V14.00,2013-01-19 09:59:00,
2013-01-19 05:00:00,31.0,19.4,30.01,SSW,208,3.5,14.7,62,0.00,,SCT,0.00,VWS V14.00,2013-01-19 10:00:00,
2013-01-19 05:04:00,31.4,19.5,30.01,South,184,10.9,15.7,61,0.00,,SKC,0.00,VWS V14.00,2013-01-19 10:04:00,
2013-01-19 05:09:00,31.2,20.1,30.00,SSW,198,7.4,15.7,63,0.00,,SKC,0.00,VWS V14.00,2013-01-19 10:09:00,
2013-01-19 05:14:00,31.2,20.5,30.00,SSW,195,7.0,15.7,64,0.00,,SKC,0.00,VWS V14.00,2013-01-19 10:14:00,
2013-01-19 05:19:00,31.1,21.1,30.00,SW,233,5.6,15.7,66,0.00,,SKC,0.00,VWS V14.00,2013-01-19 10:19:00,
2013-01-19 05:24:00,30.9,21.2,30.00,SSW,201,7.8,15.7,67,0.00,,SKC,0.00,VWS V14.00,2013-01-19 10:24:00,
2013-01-19 05:29:00,30.9,21.6,30.00,SSW,208,6.1,16.0,68,0.00,,SKC,0.00,VWS V14.00,2013-01-19 10:29:00,
2013-01-19 05:30:00,30.8,21.4,30.00,South,174,15.0,15.7,68,0.00,,SCT,0.00,VWS V14.00,2013-01-19 10:30:00,
2013-01-19 05:34:00,31.0,21.5,30.00,SW,226,4.3,16.0,67,0.00,,SKC,0.00,VWS V14.00,2013-01-19 10:34:00,
2013-01-19 05:39:00,31.1,21.7,30.00,South,184,4.0,19.8,68,0.00,,SKC,0.00,VWS V14.00,2013-01-19 10:39:00,
2013-01-19 05:44:00,31.0,21.5,30.00,WSW,255,7.6,19.8,68,0.00,,SKC,0.00,VWS V14.00,2013-01-19 10:44:00,
2013-01-19 05:49:00,31.1,21.8,29.99,SSW,198,6.3,19.8,68,0.00,,SKC,0.00,VWS V14.00,2013-01-19 10:49:00,
2013-01-19 05:54:00,31.1,21.6,29.99,SSE,148,5.8,19.8,68,0.00,,SKC,0.00,VWS V14.00,2013-01-19 10:54:00,
2013-01-19 05:59:00,31.1,21.7,29.99,South,180,5.0,9.3,68,0.00,,SKC,0.00,VWS V14.00,2013-01-19 10:59:00,
2013-01-19 06:00:00,31.2,21.7,29.99,SSE,163,5.6,19.8,68,0.00,,SCT,0.00,VWS V14.00,2013-01-19 11:00:00,
2013-01-19 06:04:00,31.4,21.6,29.99,South,180,7.9,17.4,67,0.00,,SKC,0.00,VWS V14.00,2013-01-19 11:04:00,
2013-01-19 06:09:00,31.4,21.6,29.98,South,177,8.5,17.4,67,0.00,,SKC,0.00,VWS V14.00,2013-01-19 11:09:00,
2013-01-19 06:30:00,31.9,22.3,29.98,SSW,212,6.7,17.4,67,0.00,,SCT,0.00,VWS V14.00,2013-01-19 11:30:00,
2013-01-19 07:00:00,32.7,22.5,29.97,WSW,243,4.7,17.2,66,0.00,,SCT,0.00,VWS V14.00,2013-01-19 12:00:00,
2013-01-19 07:30:00,34.0,20.8,29.96,SSW,208,9.9,15.6,58,0.00,,SCT,0.00,VWS V14.00,2013-01-19 12:30:00,
2013-01-19 07:52:00,34.5,20.4,29.95,SSE,162,10.7,18.0,56,0.00,,SKC,0.00,VWS V14.00,2013-01-19 12:52:00,
2013-01-19 07:57:00,34.6,19.9,29.95,SW,221,6.3,18.0,54,0.00,,SKC,0.00,VWS V14.00,2013-01-19 12:57:00,
2013-01-19 07:58:00,34.6,20.1,29.95,SW,218,10.4,11.5,55,0.00,,SKC,0.00,VWS V14.00,2013-01-19 12:58:00,
2013-01-19 08:00:00,34.6,19.9,29.95,SW,221,6.3,18.0,54,0.00,,SCT,0.00,VWS V14.00,2013-01-19 13:00:00,
2013-01-19 08:03:00,34.9,19.9,29.95,WSW,245,9.7,15.5,54,0.00,,SKC,0.00,VWS V14.00,2013-01-19 13:03:00,
2013-01-19 08:08:00,34.9,19.7,29.95,SSW,208,7.8,15.5,54,0.00,,SKC,0.00,VWS V14.00,2013-01-19 13:08:00,
2013-01-19 08:13:00,35.0,19.9,29.95,SSE,165,13.6,17.8,54,0.00,,OVC,0.00,VWS V14.00,2013-01-19 13:13:00,
2013-01-19 08:18:00,35.1,20.0,29.95,SSW,210,11.3,17.8,54,0.00,,OVC,0.00,VWS V14.00,2013-01-19 13:18:00,
2013-01-19 08:23:00,35.2,20.0,29.95,South,174,9.3,17.8,54,0.00,,OVC,0.00,VWS V14.00,2013-01-19 13:23:00,
2013-01-19 08:28:00,35.2,20.6,29.95,SSW,195,8.6,9.8,55,0.00,,OVC,0.00,VWS V14.00,2013-01-19 13:28:00,
2013-01-19 08:30:00,35.2,20.3,29.95,South,172,5.2,17.8,54,0.00,,SCT,0.00,VWS V14.00,2013-01-19 13:30:00,
2013-01-19 08:33:00,35.2,20.4,29.95,SW,214,7.6,14.1,54,0.00,,OVC,0.00,VWS V14.00,2013-01-19 13:33:00,
2013-01-19 08:38:00,35.4,20.4,29.95,South,169,3.8,14.1,54,0.00,,OVC,0.00,VWS V14.00,2013-01-19 13:38:00,
2013-01-19 08:43:00,35.4,20.1,29.95,SSW,201,4.1,14.1,53,0.00,,OVC,0.00,VWS V14.00,2013-01-19 13:43:00,
2013-01-19 08:48:00,35.5,20.3,29.95,SW,229,5.8,14.1,54,0.00,,OVC,0.00,VWS V14.00,2013-01-19 13:48:00,
2013-01-19 08:53:00,35.5,20.5,29.95,SW,218,16.7,17.2,54,0.00,,OVC,0.00,VWS V14.00,2013-01-19 13:53:00,
2013-01-19 08:58:00,35.7,20.4,29.95,South,186,9.3,14.2,53,0.00,,OVC,0.00,VWS V14.00,2013-01-19 13:58:00,
2013-01-19 09:00:00,35.6,20.7,29.94,South,188,6.3,17.2,54,0.00,,SCT,0.00,VWS V14.00,2013-01-19 14:00:00,
2013-01-19 09:03:00,35.6,20.4,29.95,South,176,6.3,14.2,54,0.00,,OVC,0.00,VWS V14.00,2013-01-19 14:03:00,
2013-01-19 09:08:00,35.9,20.7,29.95,SW,224,7.8,14.2,54,0.00,,OVC,0.00,VWS V14.00,2013-01-19 14:08:00,
2013-01-19 09:13:00,35.8,20.8,29.95,SSE,160,14.6,14.6,54,0.00,,OVC,0.00,VWS V14.00,2013-01-19 14:13:00,
2013-01-19 09:18:00,35.8,20.8,29.95,SSW,193,8.1,14.6,54,0.00,,OVC,0.00,VWS V14.00,2013-01-19 14:18:00,
2013-01-19 09:23:00,35.9,20.9,29.95,SSW,201,5.3,14.9,54,0.00,,OVC,0.00,VWS V14.00,2013-01-19 14:23:00,
2013-01-19 09:28:00,36.0,21.0,29.95,SW,215,9.3,13.0,54,0.00,,OVC,0.00,VWS V14.00,2013-01-19 14:28:00,
2013-01-19 09:30:00,36.0,21.1,29.94,SW,221,5.3,14.9,54,0.00,,SCT,0.00,VWS V14.00,2013-01-19 14:30:00,
2013-01-19 09:33:00,36.2,21.3,29.94,SSE,165,9.8,13.0,54,0.00,,OVC,0.00,VWS V14.00,2013-01-19 14:33:00,
2013-01-19 09:38:00,36.3,21.6,29.95,SW,232,5.8,13.0,55,0.00,,OVC,0.00,VWS V14.00,2013-01-19 14:38:00,
2013-01-19 09:43:00,36.3,21.5,29.95,South,180,6.8,13.8,54,0.00,,OVC,0.00,VWS V14.00,2013-01-19 14:43:00,
2013-01-19 09:48:00,36.6,21.6,29.95,SW,225,6.5,13.8,54,0.00,,OVC,0.00,VWS V14.00,2013-01-19 14:48:00,
2013-01-19 09:53:00,36.8,21.7,29.95,SSW,201,6.7,13.8,54,0.00,,OVC,0.00,VWS V14.00,2013-01-19 14:53:00,
2013-01-19 09:58:00,36.9,22.2,29.95,SW,214,6.8,9.8,55,0.00,,OVC,0.00,VWS V14.00,2013-01-19 14:58:00,
2013-01-19 10:00:00,36.9,22.5,29.95,South,181,8.0,13.8,56,0.00,,SCT,0.00,VWS V14.00,2013-01-19 15:00:00,
2013-01-19 10:03:00,36.9,22.0,29.95,SSW,204,7.3,12.8,54,0.00,,OVC,0.00,VWS V14.00,2013-01-19 15:03:00,
2013-01-19 10:08:00,37.2,22.1,29.95,SSW,204,10.9,13.5,54,0.00,,OVC,0.00,VWS V14.00,2013-01-19 15:08:00,
2013-01-19 10:13:00,37.4,22.5,29.94,SSW,201,6.5,13.5,54,0.00,,OVC,0.00,VWS V14.00,2013-01-19 15:13:00,
2013-01-19 10:18:00,37.5,22.4,29.94,South,177,7.0,13.5,54,0.00,,OVC,0.00,VWS V14.00,2013-01-19 15:18:00,
2013-01-19 10:23:00,37.6,22.6,29.95,SSW,204,7.3,13.5,54,0.00,,OVC,0.00,VWS V14.00,2013-01-19 15:23:00,
2013-01-19 10:28:00,37.7,23.4,29.94,SSW,208,4.7,7.5,56,0.00,,OVC,0.00,VWS V14.00,2013-01-19 15:28:00,
2013-01-19 10:30:00,37.7,23.4,29.94,South,173,6.6,13.5,56,0.00,,SCT,0.00,VWS V14.00,2013-01-19 15:30:00,
2013-01-19 10:33:00,37.7,23.4,29.95,SW,218,6.5,10.6,56,0.00,,OVC,0.00,VWS V14.00,2013-01-19 15:33:00,
2013-01-19 10:38:00,38.1,23.2,29.95,SSW,204,8.0,11.7,55,0.00,,OVC,0.00,VWS V14.00,2013-01-19 15:38:00,
2013-01-19 10:43:00,38.5,23.3,29.95,South,191,8.3,13.1,54,0.00,,OVC,0.00,VWS V14.00,2013-01-19 15:43:00,
2013-01-19 10:48:00,39.2,24.1,29.95,SW,221,7.3,15.4,54,0.00,,OVC,0.00,VWS V14.00,2013-01-19 15:48:00,
2013-01-19 10:53:00,39.6,23.8,29.95,SSW,210,8.6,21.6,53,0.00,,OVC,0.00,VWS V14.00,2013-01-19 15:53:00,
2013-01-19 10:58:00,39.8,24.0,29.95,SW,215,16.8,17.5,53,0.00,,OVC,0.00,VWS V14.00,2013-01-19 15:58:00,
2013-01-19 11:00:00,40.0,24.3,29.94,SW,224,12.2,24.3,53,0.00,,SCT,0.00,VWS V14.00,2013-01-19 16:00:00,
2013-01-19 11:03:00,40.1,24.9,29.94,SSW,212,6.8,24.1,54,0.00,,OVC,0.00,VWS V14.00,2013-01-19 16:03:00,
2013-01-19 11:08:00,40.1,24.9,29.94,SW,226,10.9,24.1,54,0.00,,OVC,0.00,VWS V14.00,2013-01-19 16:08:00,
2013-01-19 11:13:00,40.1,25.3,29.94,SW,225,10.5,24.1,55,0.00,,OVC,0.00,VWS V14.00,2013-01-19 16:13:00,
2013-01-19 11:18:00,40.2,25.3,29.94,SW,218,14.5,24.1,55,0.00,,OVC,0.00,VWS V14.00,2013-01-19 16:18:00,
2013-01-19 11:23:00,40.4,25.5,29.94,SW,219,11.4,24.1,55,0.00,,OVC,0.00,VWS V14.00,2013-01-19 16:23:00,
2013-01-19 11:28:00,40.3,25.5,29.94,SW,217,14.2,17.8,55,0.00,,OVC,0.00,VWS V14.00,2013-01-19 16:28:00,
2013-01-19 11:30:00,40.2,25.5,29.94,West,259,11.9,24.1,55,0.00,,SCT,0.00,VWS V14.00,2013-01-19 16:30:00,
2013-01-19 11:33:00,40.3,26.1,29.93,SW,228,12.0,17.8,56,0.00,,OVC,0.00,VWS V14.00,2013-01-19 16:33:00,
2013-01-19 11:38:00,40.0,26.5,29.94,SW,221,9.6,21.0,58,0.00,,OVC,0.00,VWS V14.00,2013-01-19 16:38:00,
2013-01-19 11:43:00,40.0,26.6,29.93,West,267,14.0,21.0,58,0.00,,OVC,0.00,VWS V14.00,2013-01-19 16:43:00,
2013-01-19 11:48:00,39.8,27.3,29.93,WSW,238,10.1,21.0,61,0.00,,OVC,0.00,VWS V14.00,2013-01-19 16:48:00,
2013-01-19 11:53:00,39.7,27.2,29.92,WSW,246,9.4,21.0,61,0.00,,OVC,0.00,VWS V14.00,2013-01-19 16:53:00,
2013-01-19 11:58:00,39.8,27.4,29.92,WSW,242,5.8,15.7,61,0.00,,OVC,0.00,VWS V14.00,2013-01-19 16:58:00,
2013-01-19 12:00:00,39.6,27.0,29.92,SW,221,13.4,21.0,60,0.00,,SCT,0.00,VWS V14.00,2013-01-19 17:00:00,
2013-01-19 12:03:00,39.6,27.3,29.92,SW,228,7.4,15.7,61,0.00,,OVC,0.00,VWS V14.00,2013-01-19 17:03:00,
2013-01-19 12:08:00,39.6,27.1,29.92,West,271,8.7,15.7,60,0.00,,OVC,0.00,VWS V14.00,2013-01-19 17:08:00,
2013-01-19 12:24:00,40.0,27.0,29.92,SW,232,11.5,22.8,60,0.00,,OVC,0.00,VWS V14.00,2013-01-19 17:24:00,
2013-01-19 12:29:00,40.0,27.2,29.91,SW,219,11.3,13.5,60,0.00,,OVC,0.00,VWS V14.00,2013-01-19 17:29:00,
2013-01-19 12:30:00,40.1,27.3,29.91,SW,219,11.5,22.8,60,0.00,,SCT,0.00,VWS V14.00,2013-01-19 17:30:00,
2013-01-19 12:34:00,40.0,27.3,29.92,SW,217,10.9,16.0,60,0.00,,OVC,0.00,VWS V14.00,2013-01-19 17:34:00,
2013-01-19 12:39:00,40.0,27.5,29.92,SSW,197,3.5,16.0,61,0.00,,OVC,0.00,VWS V14.00,2013-01-19 17:39:00,
2013-01-19 12:44:00,40.2,27.4,29.92,West,259,10.8,22.7,60,0.00,,OVC,0.00,VWS V14.00,2013-01-19 17:44:00,
2013-01-19 12:49:00,40.3,27.3,29.92,SW,229,9.2,22.7,60,0.00,,OVC,0.00,VWS V14.00,2013-01-19 17:49:00,
2013-01-19 12:57:00,40.2,27.6,29.92,SW,215,12.7,22.7,60,0.00,,OVC,0.00,VWS V14.00,2013-01-19 17:57:00,
2013-01-19 13:00:00,40.2,27.6,29.92,SW,215,12.7,22.7,60,0.00,,SCT,0.00,VWS V14.00,2013-01-19 18:00:00,
2013-01-19 13:04:00,40.5,27.7,29.91,West,270,12.8,20.2,60,0.00,,OVC,0.00,VWS V14.00,2013-01-19 18:04:00,
2013-01-19 13:14:00,40.6,28.1,29.92,SW,215,15.0,23.4,61,0.00,,OVC,0.00,VWS V14.00,2013-01-19 18:14:00,
2013-01-19 13:25:00,40.7,28.5,29.91,WSW,249,9.8,23.4,62,0.00,,OVC,0.00,VWS V14.00,2013-01-19 18:25:00,
2013-01-19 13:30:00,40.6,28.5,29.91,SSW,197,7.3,17.6,62,0.00,,OVC,0.00,VWS V14.00,2013-01-19 18:30:00,
2013-01-19 13:35:00,40.7,28.5,29.91,WSW,255,13.8,21.9,62,0.00,,OVC,0.00,VWS V14.00,2013-01-19 18:35:00,
2013-01-19 13:40:00,40.6,28.6,29.91,SW,217,14.3,24.1,62,0.00,,OVC,0.00,VWS V14.00,2013-01-19 18:40:00,
2013-01-19 13:45:00,40.9,28.8,29.91,SW,214,8.2,24.1,62,0.00,,OVC,0.00,VWS V14.00,2013-01-19 18:45:00,
2013-01-19 13:50:00,40.7,28.8,29.92,SW,217,11.1,24.1,62,0.00,,OVC,0.00,VWS V14.00,2013-01-19 18:50:00,
2013-01-19 13:55:00,40.8,29.1,29.91,SW,231,12.7,24.1,63,0.00,,OVC,0.00,VWS V14.00,2013-01-19 18:55:00,
2013-01-19 14:00:00,40.7,29.1,29.92,WSW,256,5.6,17.1,63,0.00,,OVC,0.00,VWS V14.00,2013-01-19 19:00:00,
2013-01-19 14:05:00,40.7,29.1,29.92,WSW,242,11.2,18.0,63,0.00,,OVC,0.00,VWS V14.00,2013-01-19 19:05:00,
2013-01-19 14:10:00,40.8,29.3,29.92,WSW,250,7.0,18.0,63,0.00,,OVC,0.00,VWS V14.00,2013-01-19 19:10:00,
2013-01-19 14:15:00,40.7,29.7,29.91,SSE,159,8.6,18.0,64,0.00,,OVC,0.00,VWS V14.00,2013-01-19 19:15:00,
2013-01-19 14:20:00,40.7,29.6,29.91,SW,236,9.4,19.1,64,0.00,,OVC,0.00,VWS V14.00,2013-01-19 19:20:00,
2013-01-19 14:25:00,40.6,29.5,29.91,SW,221,8.6,21.4,64,0.00,,OVC,0.00,VWS V14.00,2013-01-19 19:25:00,
2013-01-19 14:30:00,40.8,29.5,29.92,WSW,250,16.0,16.0,64,0.00,,OVC,0.00,VWS V14.00,2013-01-19 19:30:00,
2013-01-19 14:51:00,40.7,29.5,29.92,SW,219,9.1,20.3,64,0.00,,OVC,0.00,VWS V14.00,2013-01-19 19:51:00,
2013-01-19 14:57:00,40.8,29.6,29.91,SSW,210,14.4,20.3,64,0.00,,OVC,0.00,VWS V14.00,2013-01-19 19:57:00,
2013-01-19 15:00:00,40.8,29.6,29.91,SSW,210,14.4,20.3,64,0.00,,SCT,0.00,VWS V14.00,2013-01-19 20:00:00,
2013-01-19 15:12:00,40.8,29.9,29.91,SW,229,9.0,22.7,65,0.00,,OVC,0.00,VWS V14.00,2013-01-19 20:12:00,
2013-01-19 15:17:00,40.8,30.0,29.91,SSW,207,12.8,22.7,65,0.00,,OVC,0.00,VWS V14.00,2013-01-19 20:17:00,
2013-01-19 15:22:00,40.6,30.0,29.91,WSW,246,6.5,22.7,66,0.00,,OVC,0.00,VWS V14.00,2013-01-19 20:22:00,
2013-01-19 15:27:00,40.7,30.0,29.91,SSW,212,6.5,6.5,65,0.00,,OVC,0.00,VWS V14.00,2013-01-19 20:27:00,
2013-01-19 15:30:00,40.7,30.0,29.91,SSW,211,5.6,22.7,65,0.00,,SCT,0.00,VWS V14.00,2013-01-19 20:30:00,
2013-01-19 15:32:00,40.7,30.1,29.91,West,260,5.0,15.0,66,0.00,,OVC,0.00,VWS V14.00,2013-01-19 20:32:00,
2013-01-19 15:37:00,40.7,30.1,29.91,SW,222,8.9,17.3,66,0.00,,OVC,0.00,VWS V14.00,2013-01-19 20:37:00,
2013-01-19 15:42:00,40.7,30.1,29.91,West,264,8.4,17.3,66,0.00,,OVC,0.00,VWS V14.00,2013-01-19 20:42:00,
2013-01-19 15:47:00,40.6,29.9,29.91,SSW,212,12.7,17.3,65,0.00,,OVC,0.00,VWS V14.00,2013-01-19 20:47:00,
2013-01-19 15:57:00,40.7,30.3,29.91,SW,233,7.5,9.4,66,0.00,,OVC,0.00,VWS V14.00,2013-01-19 20:57:00,
2013-01-19 16:00:00,40.6,30.2,29.91,SSW,210,6.7,17.3,66,0.00,,SCT,0.00,VWS V14.00,2013-01-19 21:00:00,
2013-01-19 16:02:00,40.7,30.0,29.91,SW,231,6.8,11.6,66,0.00,,OVC,0.00,VWS V14.00,2013-01-19 21:02:00,
2013-01-19 16:07:00,40.7,30.0,29.90,SW,222,6.7,14.4,65,0.00,,OVC,0.00,VWS V14.00,2013-01-19 21:07:00,
2013-01-19 16:18:00,40.7,29.9,29.90,West,270,5.9,14.4,65,0.00,,OVC,0.00,VWS V14.00,2013-01-19 21:18:00,
2013-01-19 16:23:00,40.8,29.9,29.90,SSW,208,3.5,14.4,65,0.00,,OVC,0.00,VWS V14.00,2013-01-19 21:23:00,
2013-01-19 16:30:00,40.7,29.8,29.90,SW,228,6.6,14.4,65,0.00,,SCT,0.00,VWS V14.00,2013-01-19 21:30:00,
2013-01-19 16:33:00,40.6,30.0,29.90,WSW,242,7.0,13.5,66,0.00,,OVC,0.00,VWS V14.00,2013-01-19 21:33:00,
2013-01-19 16:38:00,40.6,30.3,29.90,SSW,208,8.1,13.5,66,0.00,,OVC,0.00,VWS V14.00,2013-01-19 21:38:00,
2013-01-19 16:43:00,40.4,30.3,29.90,SSW,208,6.7,20.0,67,0.00,,OVC,0.00,VWS V14.00,2013-01-19 21:43:00,
2013-01-19 16:48:00,40.3,30.7,29.90,SSW,202,8.0,20.0,68,0.00,,OVC,0.00,VWS V14.00,2013-01-19 21:48:00,
2013-01-19 16:53:00,40.0,31.4,29.90,SSW,210,7.9,20.0,71,0.00,,OVC,0.00,VWS V14.00,2013-01-19 21:53:00,
2013-01-19 17:00:00,39.7,31.9,29.90,SSW,211,4.9,20.0,73,0.00,,SCT,0.00,VWS V14.00,2013-01-19 22:00:00,
2013-01-19 17:08:00,39.2,31.9,29.90,SW,219,8.6,19.3,75,0.00,,OVC,0.00,VWS V14.00,2013-01-19 22:08:00,
2013-01-19 17:13:00,39.3,31.7,29.90,SW,219,7.3,19.3,74,0.00,,OVC,0.00,VWS V14.00,2013-01-19 22:13:00,
2013-01-19 17:18:00,39.4,31.6,29.90,SW,219,6.1,19.3,74,0.00,,OVC,0.00,VWS V14.00,2013-01-19 22:18:00,
2013-01-19 17:23:00,39.3,31.7,29.90,SSW,211,7.5,19.3,74,0.00,,OVC,0.00,VWS V14.00,2013-01-19 22:23:00,
2013-01-19 17:28:00,39.3,31.5,29.89,SSW,208,9.8,14.0,73,0.00,,OVC,0.00,VWS V14.00,2013-01-19 22:28:00,
2013-01-19 17:30:00,39.2,31.8,29.90,SSW,211,7.9,19.3,74,0.00,,SCT,0.00,VWS V14.00,2013-01-19 22:30:00,
2013-01-19 17:33:00,39.5,31.8,29.89,WSW,253,4.9,14.0,74,0.00,,OVC,0.00,VWS V14.00,2013-01-19 22:33:00,
2013-01-19 17:38:00,39.5,31.9,29.89,SSW,195,7.9,18.5,74,0.00,,OVC,0.00,VWS V14.00,2013-01-19 22:38:00,
2013-01-19 17:44:00,39.6,32.1,29.89,SW,215,6.4,18.5,74,0.00,,OVC,0.00,VWS V14.00,2013-01-19 22:44:00,
2013-01-19 17:49:00,39.6,32.4,29.89,SSW,202,6.1,18.5,75,0.00,,OVC,0.00,VWS V14.00,2013-01-19 22:49:00,
2013-01-19 17:54:00,39.5,32.4,29.89,SSW,202,7.1,18.5,75,0.00,,OVC,0.00,VWS V14.00,2013-01-19 22:54:00,
2013-01-19 17:59:00,39.7,32.4,29.89,SW,235,9.9,15.2,75,0.00,,OVC,0.00,VWS V14.00,2013-01-19 22:59:00,
2013-01-19 18:00:00,39.6,32.4,29.89,SW,232,12.6,18.8,75,0.00,,SCT,0.00,VWS V14.00,2013-01-19 23:00:00,
2013-01-19 18:14:00,39.2,33.0,29.89,WSW,239,7.0,20.1,78,0.00,,OVC,0.00,VWS V14.00,2013-01-19 23:14:00,
2013-01-19 18:19:00,38.9,33.3,29.89,SW,224,9.0,20.1,80,0.00,,OVC,0.00,VWS V14.00,2013-01-19 23:19:00,
2013-01-19 18:24:00,38.8,33.6,29.88,SSW,212,6.8,21.7,81,0.00,,OVC,0.00,VWS V14.00,2013-01-19 23:24:00,
2013-01-19 18:29:00,38.9,33.7,29.88,SW,231,6.0,15.0,82,0.00,,OVC,0.00,VWS V14.00,2013-01-19 23:29:00,
2013-01-19 18:30:00,38.9,33.8,29.88,SW,226,6.6,21.7,82,0.00,,SCT,0.00,VWS V14.00,2013-01-19 23:30:00,
2013-01-19 18:34:00,38.8,33.5,29.88,SSW,212,6.3,15.0,81,0.00,,OVC,0.00,VWS V14.00,2013-01-19 23:34:00,
2013-01-19 18:39:00,38.9,33.6,29.88,SW,224,7.1,15.0,81,0.00,,OVC,0.00,VWS V14.00,2013-01-19 23:39:00,
2013-01-19 18:44:00,38.8,33.7,29.87,SW,229,4.1,15.0,82,0.00,,OVC,0.00,VWS V14.00,2013-01-19 23:44:00,
2013-01-19 18:49:00,38.5,33.5,29.87,SW,219,10.9,15.0,82,0.00,,OVC,0.00,VWS V14.00,2013-01-19 23:49:00,
2013-01-19 18:57:00,38.7,33.7,29.87,West,260,3.6,15.0,82,0.00,,OVC,0.00,VWS V14.00,2013-01-19 23:57:00,
2013-01-19 19:00:00,38.7,33.7,29.87,West,260,3.6,15.0,82,0.00,,SCT,0.00,VWS V14.00,2013-01-20 00:00:00,
2013-01-19 19:04:00,38.5,33.7,29.87,SW,219,5.6,9.9,83,0.00,,OVC,0.00,VWS V14.00,2013-01-20 00:04:00,
2013-01-19 19:09:00,38.5,33.9,29.87,SW,217,6.3,12.8,83,0.00,,OVC,0.00,VWS V14.00,2013-01-20 00:09:00,
2013-01-19 19:14:00,38.4,34.1,29.87,SSW,208,6.5,15.0,84,0.00,,OVC,0.00,VWS V14.00,2013-01-20 00:14:00,
2013-01-19 19:20:00,38.2,34.2,29.86,SW,218,6.5,15.0,85,0.00,,OVC,0.00,VWS V14.00,2013-01-20 00:20:00,
2013-01-19 19:25:00,38.3,34.3,29.86,SW,222,6.5,15.0,86,0.00,,OVC,0.00,VWS V14.00,2013-01-20 00:25:00,
2013-01-19 19:30:00,38.1,34.2,29.86,SSW,193,3.7,15.0,86,0.00,,SCT,0.00,VWS V14.00,2013-01-20 00:30:00,
2013-01-19 19:35:00,38.1,34.2,29.85,WSW,249,4.0,9.1,86,0.00,,OVC,0.00,VWS V14.00,2013-01-20 00:35:00,
2013-01-19 19:40:00,38.1,34.3,29.85,South,181,5.0,9.1,86,0.00,,OVC,0.00,VWS V14.00,2013-01-20 00:40:00,
2013-01-19 19:45:00,38.1,34.2,29.85,South,188,2.9,9.3,86,0.00,,OVC,0.00,VWS V14.00,2013-01-20 00:45:00,
2013-01-19 19:50:00,38.2,34.3,29.84,South,177,4.8,9.3,86,0.00,,OVC,0.00,VWS V14.00,2013-01-20 00:50:00,
2013-01-19 19:55:00,38.1,34.2,29.84,SSW,194,2.5,9.3,86,0.00,,OVC,0.00,VWS V14.00,2013-01-20 00:55:00,
2013-01-19 20:00:00,37.9,33.9,29.84,SW,222,3.5,6.6,85,0.00,,OVC,0.00,VWS V14.00,2013-01-20 01:00:00,
2013-01-19 20:05:00,38.1,33.9,29.83,South,174,3.1,8.3,85,0.00,,OVC,0.00,VWS V14.00,2013-01-20 01:05:00,
2013-01-19 20:10:00,38.1,33.9,29.82,South,180,4.0,8.3,85,0.00,,OVC,0.00,VWS V14.00,2013-01-20 01:10:00,
2013-01-19 20:15:00,38.0,33.7,29.82,SSE,160,2.8,8.3,84,0.00,,OVC,0.00,VWS V14.00,2013-01-20 01:15:00,
2013-01-19 20:25:00,38.0,33.7,29.81,South,169,0.8,8.3,84,0.00,,OVC,0.00,VWS V14.00,2013-01-20 01:25:00,
2013-01-19 20:30:00,37.9,33.6,29.81,SSE,162,1.5,3.0,84,0.00,,OVC,0.00,VWS V14.00,2013-01-20 01:30:00,
2013-01-19 20:35:00,37.9,33.6,29.80,South,169,0.0,3.0,84,0.00,,OVC,0.00,VWS V14.00,2013-01-20 01:35:00,
2013-01-19 20:40:00,37.8,33.5,29.80,SSE,162,2.5,4.0,84,0.00,,OVC,0.00,VWS V14.00,2013-01-20 01:40:00,
2013-01-19 20:45:00,37.8,33.6,29.80,SSE,160,3.6,4.8,84,0.00,,OVC,0.00,VWS V14.00,2013-01-20 01:45:00,
2013-01-19 20:55:00,37.9,33.6,29.79,South,183,1.6,5.7,84,0.00,,OVC,0.00,VWS V14.00,2013-01-20 01:55:00,
2013-01-19 21:00:00,37.9,33.6,29.80,South,172,4.1,5.7,84,0.00,,SCT,0.00,VWS V14.00,2013-01-20 02:00:00,
2013-01-19 21:06:00,38.0,33.7,29.79,SSW,205,6.8,7.0,84,0.00,,OVC,0.00,VWS V14.00,2013-01-20 02:06:00,
2013-01-19 21:11:00,38.2,33.9,29.78,SSE,167,5.5,7.8,84,0.00,,OVC,0.00,VWS V14.00,2013-01-20 02:11:00,
2013-01-19 21:16:00,38.5,34.2,29.78,SE,124,0.0,7.8,84,0.00,,OVC,0.00,VWS V14.00,2013-01-20 02:16:00,
2013-01-19 21:21:00,38.6,34.2,29.77,South,170,2.5,7.8,84,0.00,,OVC,0.00,VWS V14.00,2013-01-20 02:21:00,
2013-01-19 21:26:00,38.8,34.3,29.77,SSE,163,1.6,7.8,84,0.00,,OVC,0.00,VWS V14.00,2013-01-20 02:26:00,
2013-01-19 21:30:00,38.8,34.2,29.77,South,173,4.3,7.8,84,0.00,,SCT,0.00,VWS V14.00,2013-01-20 02:30:00,
2013-01-19 21:51:00,39.6,33.9,29.75,SSW,197,2.7,7.4,80,0.00,,OVC,0.00,VWS V14.00,2013-01-20 02:51:00,
2013-01-19 21:57:00,39.8,33.7,29.75,South,184,3.8,7.4,79,0.00,,OVC,0.00,VWS V14.00,2013-01-20 02:57:00,
2013-01-19 22:00:00,39.8,33.7,29.75,South,184,3.8,7.4,79,0.00,,SCT,0.00,VWS V14.00,2013-01-20 03:00:00,
2013-01-19 22:07:00,40.0,33.7,29.73,South,183,0.0,6.1,78,0.00,,OVC,0.00,VWS V14.00,2013-01-20 03:07:00,
2013-01-19 22:12:00,40.0,33.5,29.71,SSE,162,4.5,6.1,77,0.00,,OVC,0.00,VWS V14.00,2013-01-20 03:12:00,
2013-01-19 22:17:00,40.3,32.5,29.71,SSE,162,5.8,8.8,74,0.00,,OVC,0.00,VWS V14.00,2013-01-20 03:17:00,
2013-01-19 22:22:00,40.6,32.7,29.70,SSE,152,4.8,8.8,73,0.00,,OVC,0.00,VWS V14.00,2013-01-20 03:22:00,
2013-01-19 22:27:00,40.7,32.5,29.70,SE,124,2.4,2.4,72,0.00,,OVC,0.00,VWS V14.00,2013-01-20 03:27:00,
2013-01-19 22:30:00,40.6,32.4,29.70,ESE,103,2.4,8.8,72,0.00,,SCT,0.00,VWS V14.00,2013-01-20 03:30:00,
2013-01-19 22:32:00,40.7,32.2,29.69,SSE,166,7.3,8.6,71,0.00,,OVC,0.00,VWS V14.00,2013-01-20 03:32:00,
2013-01-19 22:42:00,41.5,30.8,29.68,South,190,5.5,13.5,65,0.00,,OVC,0.00,VWS V14.00,2013-01-20 03:42:00,
2013-01-19 22:47:00,42.1,30.4,29.67,SSE,158,6.8,13.5,63,0.00,,OVC,0.00,VWS V14.00,2013-01-20 03:47:00,
2013-01-19 22:52:00,42.6,30.0,29.67,SSE,165,8.8,13.5,61,0.00,,OVC,0.00,VWS V14.00,2013-01-20 03:52:00,
2013-01-19 22:57:00,43.2,29.6,29.66,SSE,149,9.7,11.2,58,0.00,,OVC,0.00,VWS V14.00,2013-01-20 03:57:00,
2013-01-19 23:00:00,43.3,29.3,29.67,South,176,8.9,18.5,58,0.00,,SCT,0.00,VWS V14.00,2013-01-20 04:00:00,
2013-01-19 23:02:00,43.7,29.4,29.66,South,191,8.6,16.8,57,0.00,,OVC,0.00,VWS V14.00,2013-01-20 04:02:00,
2013-01-19 23:07:00,44.1,29.7,29.66,SSW,195,6.6,16.8,57,0.00,,OVC,0.00,VWS V14.00,2013-01-20 04:07:00,
2013-01-19 23:12:00,44.3,29.8,29.66,South,173,6.5,16.8,56,0.00,,OVC,0.00,VWS V14.00,2013-01-20 04:12:00,
2013-01-19 23:17:00,44.7,29.7,29.65,SSW,210,12.5,16.8,55,0.00,,OVC,0.00,VWS V14.00,2013-01-20 04:17:00,
2013-01-19 23:22:00,45.1,29.7,29.65,SW,221,6.8,16.8,55,0.00,,OVC,0.00,VWS V14.00,2013-01-20 04:22:00,
2013-01-19 23:27:00,46.0,29.3,29.65,SSW,211,7.8,12.4,52,0.00,,OVC,0.00,VWS V14.00,2013-01-20 04:27:00,
2013-01-19 23:30:00,45.8,29.4,29.65,SSW,194,11.2,18.8,52,0.00,,SCT,0.00,VWS V14.00,2013-01-20 04:30:00,
2013-01-19 23:32:00,46.8,28.6,29.65,WSW,249,15.3,22.0,49,0.00,,OVC,0.00,VWS V14.00,2013-01-20 04:32:00,
2013-01-19 23:37:00,47.6,28.3,29.64,SW,218,9.7,29.0,47,0.00,,OVC,0.00,VWS V14.00,2013-01-20 04:37:00,
2013-01-19 23:42:00,48.1,28.4,29.64,SW,214,8.6,29.0,46,0.00,,OVC,0.00,VWS V14.00,2013-01-20 04:42:00,
2013-01-19 23:47:00,47.8,28.4,29.64,South,190,15.0,29.0,47,0.00,,OVC,0.00,VWS V14.00,2013-01-20 04:47:00,
2013-01-19 23:53:00,48.1,28.4,29.64,SSW,202,15.2,29.0,46,0.00,,OVC,0.00,VWS V14.00,2013-01-20 04:53:00,